Time;durP1;ratioP1;P1;durP2;ratioP2;P2;SDS_P1;SDS_P2;PMS_P1;PMS_P2;Temp;Humidity;BMP_temperature;BMP_pressure;BME280_temperature;BME280_humidity;BME280_pressure;Samples;Min_cycle;Max_cycle;Signal;HPM_P1;HPM_P2
2021/04/15 00:02:08;;;;;;;3.47;1.73;;;18.10;35.50;;;;;;4941400;29;20172;-80
2021/04/15 00:04:34;;;;;;;2.85;1.50;;;18.10;35.60;;;;;;4942448;29;20279;-80
2021/04/15 00:06:59;;;;;;;2.20;1.40;;;18.10;35.70;;;;;;4942849;29;20218;-78
2021/04/15 00:09:25;;;;;;;2.97;1.50;;;18.10;35.70;;;;;;4924828;29;20648;-81
2021/04/15 00:11:51;;;;;;;3.25;1.30;;;18.10;35.60;;;;;;4942080;29;20783;-80
2021/04/15 00:14:18;;;;;;;3.78;1.55;;;18.10;35.60;;;;;;4940687;29;20163;-80
2021/04/15 00:16:44;;;;;;;2.25;1.45;;;18.10;35.60;;;;;;4941286;29;20324;-81
2021/04/15 00:19:10;;;;;;;4.18;1.70;;;18.10;35.60;;;;;;4940661;29;20673;-81
2021/04/15 00:21:37;;;;;;;6.15;1.88;;;18.10;35.70;;;;;;4941180;29;20563;-79
2021/04/15 00:24:03;;;;;;;3.95;2.00;;;18.10;35.70;;;;;;4924844;29;20165;-81
2021/04/15 00:26:38;;;;;;;3.85;1.48;;;18.10;35.70;;;;;;4941393;29;20665;-81
2021/04/15 00:29:05;;;;;;;2.25;1.35;;;18.10;35.70;;;;;;4941348;29;20236;-79
2021/04/15 00:31:33;;;;;;;3.08;1.67;;;18.00;35.70;;;;;;4940820;29;20155;-79
2021/04/15 00:33:59;;;;;;;2.78;1.50;;;18.10;35.70;;;;;;4940945;29;20151;-79
2021/04/15 00:36:26;;;;;;;3.40;1.42;;;18.00;35.70;;;;;;4942551;29;20159;-79
2021/04/15 00:38:52;;;;;;;2.97;1.30;;;18.00;35.80;;;;;;4940210;29;20180;-80
2021/04/15 00:41:18;;;;;;;3.80;1.50;;;18.00;35.80;;;;;;4940606;29;20634;-80
2021/04/15 00:43:44;;;;;;;2.95;1.40;;;18.00;35.80;;;;;;4924918;29;20173;-80
2021/04/15 00:46:31;;;;;;;3.35;1.70;;;18.00;35.80;;;;;;4942795;29;20157;-79
2021/04/15 00:48:57;;;;;;;1.85;1.20;;;18.00;35.90;;;;;;4943464;29;20186;-80
2021/04/15 00:51:40;;;;;;;2.92;1.42;;;18.00;35.90;;;;;;4942388;29;20169;-78
2021/04/15 00:54:38;;;;;;;4.45;1.73;;;18.00;35.90;;;;;;4942225;29;20229;-80
2021/04/15 00:57:05;;;;;;;2.45;1.48;;;18.00;35.90;;;;;;4938781;29;20193;-80
2021/04/15 00:59:32;;;;;;;2.50;1.27;;;18.00;35.90;;;;;;4941805;29;20210;-80
2021/04/15 01:01:58;;;;;;;2.67;1.63;;;18.00;35.90;;;;;;4942124;29;20623;-77
2021/04/15 01:04:23;;;;;;;3.30;1.40;;;18.00;35.90;;;;;;4941889;29;20158;-80
2021/04/15 01:06:50;;;;;;;2.80;1.58;;;18.00;36.00;;;;;;4941500;29;20213;-80
2021/04/15 01:09:16;;;;;;;2.20;1.42;;;18.00;36.00;;;;;;4941806;29;20541;-79
2021/04/15 01:12:04;;;;;;;2.05;1.33;;;18.00;35.90;;;;;;4942017;29;20159;-81
2021/04/15 01:14:52;;;;;;;2.75;1.40;;;18.00;35.90;;;;;;4942858;29;20166;-80
2021/04/15 01:17:34;;;;;;;1.60;1.10;;;18.00;36.00;;;;;;4941228;29;20752;-79
2021/04/15 01:20:28;;;;;;;1.60;1.10;;;18.00;36.10;;;;;;4941625;29;20194;-81
2021/04/15 01:23:05;;;;;;;1.35;1.25;;;18.00;36.00;;;;;;4941551;29;20166;-79
2021/04/15 01:26:05;;;;;;;1.48;1.15;;;17.90;36.00;;;;;;4943464;29;20182;-81
2021/04/15 01:28:34;;;;;;;2.55;1.48;;;17.90;36.10;;;;;;4928662;29;20265;-79
2021/04/15 01:31:22;;;;;;;1.40;1.23;;;18.00;36.10;;;;;;4947058;29;20163;-78
2021/04/15 01:34:00;;;;;;;3.92;1.75;;;18.00;36.10;;;;;;4943962;29;20155;-79
2021/04/15 01:37:00;;;;;;;4.43;1.63;;;18.00;36.10;;;;;;4944605;29;20190;-79
2021/04/15 01:39:32;;;;;;;2.60;1.40;;;17.90;36.10;;;;;;4944496;29;20194;-79
2021/04/15 01:42:03;;;;;;;2.10;1.17;;;18.00;36.20;;;;;;4945324;29;20490;-78
2021/04/15 01:44:52;;;;;;;2.75;1.55;;;17.90;36.90;;;;;;4944949;29;20210;-78
2021/04/15 01:47:21;;;;;;;2.38;1.35;;;17.90;36.20;;;;;;4946666;29;20190;-81
2021/04/15 01:49:49;;;;;;;2.20;1.20;;;17.90;36.20;;;;;;4946778;29;20162;-78
2021/04/15 01:52:16;;;;;;;2.30;1.50;;;17.90;36.20;;;;;;4946477;29;20185;-78
2021/04/15 01:54:54;;;;;;;2.65;1.40;;;17.90;36.20;;;;;;4946083;29;20184;-79
2021/04/15 01:57:30;;;;;;;3.50;1.42;;;17.90;36.90;;;;;;4944652;29;20158;-80
2021/04/15 02:00:00;;;;;;;2.90;1.42;;;17.90;36.20;;;;;;4945414;29;20681;-80
2021/04/15 02:02:32;;;;;;;3.38;1.23;;;17.90;36.30;;;;;;4945054;29;20165;-80
2021/04/15 02:05:40;;;;;;;3.25;1.65;;;17.90;36.30;;;;;;4928966;29;20189;-80
2021/04/15 02:08:25;;;;;;;3.72;1.70;;;17.90;36.40;;;;;;4924951;29;20182;-79
2021/04/15 02:11:46;;;;;;;2.38;1.58;;;17.90;36.30;;;;;;4908809;29;20167;-80
2021/04/15 02:14:19;;;;;;;4.18;1.58;;;17.90;36.40;;;;;;4867933;29;20185;-79
2021/04/15 02:16:47;;;;;;;3.70;1.73;;;17.90;36.30;;;;;;4852751;29;20617;-81
2021/04/15 02:19:27;;;;;;;2.97;1.30;;;17.90;36.30;;;;;;4867931;29;20219;-80
2021/04/15 02:22:12;;;;;;;2.42;1.50;;;17.90;36.50;;;;;;4866826;29;20189;-81
2021/04/15 02:25:00;;;;;;;4.18;1.50;;;17.90;36.40;;;;;;4867845;29;20208;-79
2021/04/15 02:27:57;;;;;;;2.28;1.38;;;17.90;36.40;;;;;;4868365;29;20161;-79
2021/04/15 02:31:04;;;;;;;2.60;1.40;;;17.90;36.40;;;;;;4867846;29;20196;-80
2021/04/15 02:33:52;;;;;;;2.08;1.30;;;17.90;36.50;;;;;;4868102;29;20172;-79
2021/04/15 02:36:43;;;;;;;2.00;1.40;;;17.90;36.40;;;;;;4867425;29;20653;-81
2021/04/15 02:39:14;;;;;;;2.65;1.70;;;17.90;36.40;;;;;;4866837;29;20189;-79
2021/04/15 02:41:54;;;;;;;2.85;1.30;;;17.90;36.60;;;;;;4867577;29;20302;-81
2021/04/15 02:44:26;;;;;;;2.80;1.40;;;17.90;36.50;;;;;;4868617;29;20221;-83
2021/04/15 02:46:57;;;;;;;3.03;1.45;;;17.90;36.30;;;;;;4852921;29;20185;-81
2021/04/15 02:49:25;;;;;;;2.30;1.30;;;17.90;36.50;;;;;;4865315;29;20187;-78
2021/04/15 02:52:07;;;;;;;2.95;1.35;;;17.90;36.50;;;;;;4905899;29;20239;-80
2021/04/15 02:54:54;;;;;;;2.55;1.30;;;17.90;36.50;;;;;;4907749;29;20163;-80
2021/04/15 02:57:37;;;;;;;3.53;1.40;;;17.90;36.60;;;;;;4907185;29;20159;-78
2021/04/15 03:00:27;;;;;;;3.17;1.48;;;17.90;36.60;;;;;;4906552;29;20337;-81
2021/04/15 03:03:17;;;;;;;3.90;1.50;;;17.90;36.60;;;;;;4907062;29;20246;-78
2021/04/15 03:05:48;;;;;;;2.85;1.50;;;17.90;36.60;;;;;;4906544;29;20207;-81
2021/04/15 03:08:20;;;;;;;2.17;1.30;;;17.90;36.60;;;;;;4890566;29;20164;-79
2021/04/15 03:10:58;;;;;;;2.40;1.58;;;17.90;36.60;;;;;;4891037;29;20171;-78
2021/04/15 03:13:50;;;;;;;3.25;1.38;;;17.90;36.50;;;;;;4905784;29;20583;-80
2021/04/15 03:16:35;;;;;;;3.22;1.50;;;17.90;36.60;;;;;;4907104;29;20679;-81
2021/04/15 03:19:07;;;;;;;2.53;1.20;;;17.80;36.70;;;;;;4943077;29;20226;-79
2021/04/15 03:22:05;;;;;;;1.65;1.30;;;17.80;36.60;;;;;;4943180;29;20186;-80
2021/04/15 03:24:57;;;;;;;4.05;1.13;;;17.90;36.60;;;;;;4944155;29;20209;-81
2021/04/15 03:27:27;;;;;;;2.15;1.15;;;17.80;36.70;;;;;;4941726;29;20194;-81
2021/04/15 03:30:07;;;;;;;1.60;1.30;;;17.80;36.70;;;;;;4942652;29;20261;-80
2021/04/15 03:33:01;;;;;;;4.90;1.45;;;17.80;36.80;;;;;;4942679;29;20162;-78
2021/04/15 03:35:53;;;;;;;2.40;1.30;;;17.80;36.80;;;;;;4929405;29;20653;-81
2021/04/15 03:38:39;;;;;;;5.03;1.50;;;17.90;36.70;;;;;;4943329;29;20205;-79
2021/04/15 03:41:19;;;;;;;3.60;1.30;;;17.90;36.80;;;;;;4943692;29;20277;-81
2021/04/15 03:43:48;;;;;;;2.40;1.30;;;17.90;36.60;;;;;;4926633;29;20209;-81
2021/04/15 03:46:34;;;;;;;1.55;1.38;;;17.90;36.70;;;;;;4941867;29;20197;-81
2021/04/15 03:49:21;;;;;;;4.45;1.48;;;17.90;36.70;;;;;;4942280;29;20162;-78
2021/04/15 03:51:49;;;;;;;2.40;1.40;;;17.80;36.70;;;;;;4943824;29;20157;-80
2021/04/15 03:54:20;;;;;;;2.85;1.48;;;17.90;36.80;;;;;;4942611;29;20164;-79
2021/04/15 03:57:14;;;;;;;2.85;1.77;;;17.80;36.90;;;;;;4926072;29;20177;-81
2021/04/15 03:59:53;;;;;;;3.13;1.40;;;17.80;36.80;;;;;;4925177;29;20213;-79
2021/04/15 04:02:41;;;;;;;2.45;1.30;;;17.80;36.80;;;;;;4942148;29;20194;-79
2021/04/15 04:05:28;;;;;;;2.00;1.30;;;17.90;36.80;;;;;;4943130;29;20161;-79
2021/04/15 04:07:58;;;;;;;2.42;1.25;;;17.80;36.70;;;;;;4928501;29;20170;-80
2021/04/15 04:10:45;;;;;;;3.85;1.38;;;17.90;36.60;;;;;;4946352;29;20230;-78
2021/04/15 04:13:28;;;;;;;1.92;1.35;;;17.90;36.30;;;;;;4945933;29;20169;-80
2021/04/15 04:16:02;;;;;;;2.72;1.40;;;18.10;36.00;;;;;;4928820;29;20537;-80
2021/04/15 04:18:30;;;;;;;2.78;1.30;;;18.10;36.00;;;;;;4945715;29;20232;-79
2021/04/15 04:21:03;;;;;;;1.88;1.30;;;18.10;36.00;;;;;;4928567;29;20213;-81
2021/04/15 04:23:48;;;;;;;1.80;1.30;;;18.10;36.20;;;;;;4944479;29;20182;-81
2021/04/15 04:26:29;;;;;;;1.45;1.10;;;18.00;36.20;;;;;;4945003;29;20165;-80
2021/04/15 04:29:13;;;;;;;1.67;1.30;;;18.10;36.20;;;;;;4946220;29;20244;-78
2021/04/15 04:31:41;;;;;;;1.65;1.30;;;18.00;36.40;;;;;;4928405;29;20166;-79
2021/04/15 04:34:08;;;;;;;1.63;1.30;;;18.10;35.90;;;;;;4941137;29;20515;-80
2021/04/15 04:36:35;;;;;;;3.20;1.23;;;18.20;35.90;;;;;;4940590;29;20159;-79
2021/04/15 04:39:02;;;;;;;1.45;1.05;;;18.10;36.00;;;;;;4924241;29;20170;-79
2021/04/15 04:41:50;;;;;;;1.80;1.20;;;18.10;36.70;;;;;;4939699;29;20158;-80
2021/04/15 04:44:30;;;;;;;2.28;1.33;;;18.10;35.90;;;;;;4940834;29;20186;-78
2021/04/15 04:47:27;;;;;;;1.48;1.02;;;18.10;36.00;;;;;;4940620;29;20158;-79
2021/04/15 04:50:22;;;;;;;4.03;1.40;;;18.10;36.00;;;;;;4940424;29;20166;-79
2021/04/15 04:52:54;;;;;;;4.25;1.33;;;18.10;36.00;;;;;;4937742;29;20207;-79
2021/04/15 04:55:45;;;;;;;2.45;1.00;;;18.10;36.10;;;;;;4939495;29;20216;-78
2021/04/15 04:58:17;;;;;;;1.95;1.15;;;18.10;36.10;;;;;;4938681;29;20169;-80
2021/04/15 05:00:55;;;;;;;3.13;1.15;;;18.10;36.00;;;;;;4943015;29;20206;-80
2021/04/15 05:03:41;;;;;;;2.65;1.00;;;18.10;36.00;;;;;;4935192;29;20184;-79
2021/04/15 05:06:23;;;;;;;2.33;1.58;;;18.20;35.80;;;;;;4953089;29;20162;-79
2021/04/15 05:09:11;;;;;;;2.25;1.23;;;18.20;35.80;;;;;;4951181;29;20169;-79
2021/04/15 05:11:42;;;;;;;1.55;1.27;;;18.10;35.90;;;;;;4952059;29;20305;-78
2021/04/15 05:14:08;;;;;;;1.98;1.25;;;18.20;35.70;;;;;;4935601;29;20621;-79
2021/04/15 05:17:03;;;;;;;1.55;1.05;;;18.20;35.80;;;;;;4951172;29;20166;-78
2021/04/15 05:19:29;;;;;;;1.67;0.95;;;18.10;35.80;;;;;;4915060;29;20253;-79
2021/04/15 05:21:55;;;;;;;2.38;1.00;;;18.10;35.90;;;;;;4899152;29;20183;-79
2021/04/15 05:24:46;;;;;;;1.65;1.20;;;18.10;35.90;;;;;;4912810;29;20219;-81
2021/04/15 05:27:21;;;;;;;2.15;1.20;;;18.10;36.00;;;;;;4913678;29;20163;-79
2021/04/15 05:29:48;;;;;;;1.88;1.02;;;18.10;36.00;;;;;;4912158;29;20262;-80
2021/04/15 05:32:18;;;;;;;1.40;1.20;;;18.00;36.00;;;;;;4894036;29;20174;-81
2021/04/15 05:34:45;;;;;;;1.58;1.30;;;18.10;35.90;;;;;;4911473;29;20178;-80
2021/04/15 05:37:23;;;;;;;2.65;1.23;;;18.10;36.00;;;;;;4911929;29;20630;-80
2021/04/15 05:40:03;;;;;;;1.90;1.15;;;18.10;35.80;;;;;;4928309;29;20198;-80
2021/04/15 05:42:35;;;;;;;1.10;0.98;;;18.10;35.80;;;;;;4927784;29;20246;-80
2021/04/15 05:45:25;;;;;;;2.40;1.25;;;18.10;35.90;;;;;;4929799;29;20242;-79
2021/04/15 05:47:51;;;;;;;3.42;1.17;;;18.10;35.90;;;;;;4926267;29;20202;-80
2021/04/15 05:50:25;;;;;;;2.40;1.20;;;18.10;35.90;;;;;;4914208;29;20203;-80
2021/04/15 05:53:22;;;;;;;1.83;1.30;;;18.10;35.80;;;;;;4930667;29;20210;-80
2021/04/15 05:56:10;;;;;;;1.63;1.42;;;18.10;36.00;;;;;;4935420;29;20254;-79
2021/04/15 05:58:53;;;;;;;2.03;1.10;;;18.20;36.30;;;;;;4950699;29;20158;-80
2021/04/15 06:01:43;;;;;;;3.28;1.38;;;18.30;36.30;;;;;;4934602;29;20214;-80
2021/04/15 06:04:14;;;;;;;1.65;1.00;;;18.30;36.40;;;;;;4934247;29;20174;-80
2021/04/15 06:06:45;;;;;;;1.38;1.08;;;18.30;35.80;;;;;;4951614;29;20169;-79
2021/04/15 06:09:20;;;;;;;3.08;1.10;;;18.20;35.80;;;;;;4948970;29;20162;-79
2021/04/15 06:12:04;;;;;;;1.25;1.08;;;18.10;35.90;;;;;;4947452;29;20161;-78
2021/04/15 06:14:55;;;;;;;1.95;0.95;;;18.10;35.80;;;;;;4947240;29;20196;-78
2021/04/15 06:17:28;;;;;;;1.45;1.00;;;18.20;35.60;;;;;;4949740;29;20217;-78
2021/04/15 06:20:17;;;;;;;2.47;1.10;;;18.20;35.50;;;;;;4934633;29;20257;-78
2021/04/15 06:22:52;;;;;;;1.15;1.05;;;18.20;35.60;;;;;;4950349;29;20263;-78
2021/04/15 06:25:32;;;;;;;1.80;1.10;;;18.20;35.50;;;;;;4951782;29;20160;-78
2021/04/15 06:28:28;;;;;;;1.73;1.00;;;18.10;35.60;;;;;;4951686;29;20165;-78
2021/04/15 06:31:09;;;;;;;1.45;1.02;;;18.20;35.50;;;;;;4950525;29;20193;-77
2021/04/15 06:33:42;;;;;;;1.80;0.98;;;18.10;35.50;;;;;;4952313;29;20170;-79
2021/04/15 06:36:19;;;;;;;1.80;1.05;;;18.20;35.40;;;;;;4952741;29;20151;-78
2021/04/15 06:38:53;;;;;;;4.18;1.10;;;18.10;35.30;;;;;;4952811;29;20161;-78
2021/04/15 06:41:35;;;;;;;1.88;1.30;;;18.10;35.60;;;;;;4952851;29;20211;-78
2021/04/15 06:44:23;;;;;;;0.80;0.80;;;18.10;35.40;;;;;;4951854;29;20631;-78
2021/04/15 06:47:13;;;;;;;1.45;1.10;;;18.10;35.50;;;;;;4951993;29;20344;-78
2021/04/15 06:50:02;;;;;;;1.75;0.90;;;18.10;35.60;;;;;;4947543;29;20169;-77
2021/04/15 06:52:46;;;;;;;0.85;0.80;;;18.20;35.30;;;;;;4951568;29;20162;-77
2021/04/15 06:55:47;;;;;;;1.20;1.00;;;18.20;35.10;;;;;;4950312;29;20162;-77
2021/04/15 06:58:38;;;;;;;1.15;0.93;;;18.20;35.10;;;;;;4950899;29;20313;-77
2021/04/15 07:01:42;;;;;;;1.95;1.08;;;18.20;35.00;;;;;;4950664;29;20209;-78
2021/04/15 07:04:22;;;;;;;2.65;1.10;;;18.20;35.10;;;;;;4951313;29;20193;-77
2021/04/15 07:07:10;;;;;;;1.75;1.08;;;18.30;35.10;;;;;;4951623;29;20166;-77
2021/04/15 07:10:07;;;;;;;2.67;1.10;;;18.30;35.00;;;;;;4949857;29;20170;-78
2021/04/15 07:13:09;;;;;;;2.33;1.05;;;18.30;35.10;;;;;;4951285;29;20162;-77
2021/04/15 07:15:55;;;;;;;1.75;0.98;;;18.20;35.20;;;;;;4949654;29;20205;-77
2021/04/15 07:18:42;;;;;;;1.38;1.10;;;18.30;35.00;;;;;;4949747;29;20249;-78
2021/04/15 07:21:09;;;;;;;1.83;0.98;;;18.30;35.00;;;;;;4934236;29;20198;-78
2021/04/15 07:23:36;;;;;;;1.38;1.00;;;18.30;35.00;;;;;;4951150;29;20155;-78
2021/04/15 07:26:29;;;;;;;2.38;1.00;;;18.30;35.00;;;;;;4950416;29;20174;-78
2021/04/15 07:29:06;;;;;;;3.00;1.20;;;18.40;34.80;;;;;;4950163;29;20158;-78
2021/04/15 07:31:55;;;;;;;1.88;1.10;;;18.30;34.90;;;;;;4951200;29;20150;-78
2021/04/15 07:34:58;;;;;;;1.73;1.10;;;18.40;34.90;;;;;;4951356;29;20154;-78
2021/04/15 07:38:01;;;;;;;4.07;1.30;;;18.40;34.80;;;;;;4928949;29;20178;-78
2021/04/15 07:40:51;;;;;;;1.85;1.20;;;18.40;34.90;;;;;;4929570;29;20238;-77
2021/04/15 07:43:20;;;;;;;3.75;1.10;;;18.40;34.80;;;;;;4911350;29;20190;-77
2021/04/15 07:46:06;;;;;;;1.17;1.00;;;18.40;34.70;;;;;;4928942;29;20171;-78
2021/04/15 07:49:05;;;;;;;3.90;1.15;;;18.40;34.60;;;;;;4913278;29;20186;-79
2021/04/15 07:52:03;;;;;;;1.25;0.82;;;18.40;34.60;;;;;;4928716;29;20205;-77
2021/04/15 07:54:46;;;;;;;1.65;0.90;;;18.50;34.60;;;;;;4913271;29;20186;-78
2021/04/15 07:57:39;;;;;;;1.35;0.88;;;18.50;34.50;;;;;;4913172;29;20256;-77
2021/04/15 08:00:37;;;;;;;1.65;1.00;;;18.50;34.60;;;;;;4913529;29;20223;-78
2021/04/15 08:03:40;;;;;;;1.73;0.82;;;18.50;34.50;;;;;;4912734;29;20163;-78
2021/04/15 08:06:29;;;;;;;1.77;1.10;;;18.40;34.50;;;;;;4929706;29;20202;-78
2021/04/15 08:09:15;;;;;;;2.83;1.10;;;18.50;34.50;;;;;;4913938;29;20190;-77
2021/04/15 08:11:52;;;;;;;1.58;0.95;;;18.50;34.50;;;;;;4913860;29;20177;-78
2021/04/15 08:14:55;;;;;;;1.95;0.98;;;18.50;34.50;;;;;;4939063;29;20209;-78
2021/04/15 08:18:02;;;;;;;1.10;0.90;;;18.50;34.40;;;;;;4950091;29;20218;-78
2021/04/15 08:21:04;;;;;;;5.93;1.00;;;18.50;34.30;;;;;;4930425;29;20229;-78
2021/04/15 08:23:56;;;;;;;1.63;1.05;;;18.50;34.40;;;;;;4922558;29;20182;-79
2021/04/15 08:26:53;;;;;;;1.30;1.10;;;18.40;34.40;;;;;;4917584;29;20273;-79
2021/04/15 08:29:43;;;;;;;1.88;0.95;;;18.50;34.40;;;;;;4859134;29;20192;-79
2021/04/15 08:32:44;;;;;;;2.00;0.88;;;18.50;34.40;;;;;;4858760;29;20205;-79
2021/04/15 08:35:34;;;;;;;1.50;1.08;;;18.50;34.30;;;;;;4845856;29;20197;-79
2021/04/15 08:38:24;;;;;;;1.30;1.15;;;18.50;34.30;;;;;;4858179;29;20189;-79
2021/04/15 08:40:58;;;;;;;2.70;1.02;;;18.50;34.20;;;;;;4843307;29;20213;-79
2021/04/15 08:43:28;;;;;;;1.42;0.90;;;18.50;34.20;;;;;;4842929;29;20206;-78
2021/04/15 08:46:17;;;;;;;2.20;1.00;;;18.50;34.10;;;;;;4857864;29;20208;-79
2021/04/15 08:48:53;;;;;;;1.50;1.00;;;18.50;34.20;;;;;;4843220;29;20165;-79
2021/04/15 08:51:38;;;;;;;3.03;0.90;;;18.50;34.20;;;;;;4847799;29;20198;-79
2021/04/15 08:54:31;;;;;;;2.38;1.02;;;18.60;34.00;;;;;;4863786;29;20185;-79
2021/04/15 08:57:25;;;;;;;2.40;0.90;;;18.60;34.10;;;;;;4877476;29;20184;-80
2021/04/15 09:00:22;;;;;;;2.28;1.20;;;18.50;34.10;;;;;;4898138;29;20230;-80
2021/04/15 09:03:23;;;;;;;0.90;0.80;;;18.50;34.20;;;;;;4898964;29;20219;-80
2021/04/15 09:06:25;;;;;;;1.42;0.90;;;18.60;34.00;;;;;;4931623;29;20206;-80
2021/04/15 09:09:03;;;;;;;4.00;1.00;;;18.60;34.00;;;;;;4957722;29;20162;-81
2021/04/15 09:11:31;;;;;;;4.32;1.30;;;18.60;34.00;;;;;;4954845;29;20181;-80
2021/04/15 09:14:42;;;;;;;2.55;1.05;;;18.50;34.00;;;;;;4952954;29;20184;-82
2021/04/15 09:17:23;;;;;;;1.42;1.00;;;18.50;33.90;;;;;;4954662;29;20214;-82
2021/04/15 09:20:08;;;;;;;1.58;1.00;;;18.60;33.90;;;;;;4953334;29;20190;-80
2021/04/15 09:22:34;;;;;;;2.65;1.20;;;18.60;33.90;;;;;;4953005;29;20217;-82
2021/04/15 09:25:24;;;;;;;1.25;0.98;;;18.60;33.70;;;;;;4952794;29;20163;-82
2021/04/15 09:28:09;;;;;;;1.13;1.02;;;18.60;33.70;;;;;;4954561;29;20166;-81
2021/04/15 09:30:53;;;;;;;1.50;0.95;;;18.60;33.70;;;;;;4951820;29;20222;-81
2021/04/15 09:33:35;;;;;;;1.15;1.02;;;18.60;33.60;;;;;;4955859;29;20150;-80
2021/04/15 09:36:29;;;;;;;1.27;1.00;;;18.60;33.50;;;;;;4958051;29;20197;-80
2021/04/15 09:39:23;;;;;;;2.03;0.90;;;18.60;33.70;;;;;;4934377;29;20250;-80
2021/04/15 09:42:04;;;;;;;1.70;1.10;;;18.60;33.80;;;;;;4932133;29;20178;-81
2021/04/15 09:44:34;;;;;;;3.63;1.20;;;18.60;33.80;;;;;;4934669;29;20190;-80
2021/04/15 09:47:06;;;;;;;1.48;0.98;;;18.50;33.80;;;;;;4919004;29;20223;-82
2021/04/15 09:49:48;;;;;;;2.10;1.05;;;18.50;33.80;;;;;;4936082;29;20250;-83
2021/04/15 09:52:40;;;;;;;2.42;1.00;;;18.50;33.80;;;;;;4926543;29;20234;-80
2021/04/15 09:55:33;;;;;;;1.25;1.00;;;18.60;33.70;;;;;;4922906;29;20199;-79
2021/04/15 09:58:19;;;;;;;2.28;1.00;;;18.60;33.70;;;;;;4921486;29;20246;-79
2021/04/15 10:01:00;;;;;;;1.33;1.10;;;18.60;33.60;;;;;;4923025;29;20203;-79
2021/04/15 10:03:30;;;;;;;1.95;1.17;;;18.60;33.60;;;;;;4907460;29;20163;-79
2021/04/15 10:05:59;;;;;;;1.92;1.00;;;18.60;33.60;;;;;;4922400;29;20168;-79
2021/04/15 10:08:45;;;;;;;2.85;1.00;;;18.70;33.40;;;;;;4907510;29;20259;-79
2021/04/15 10:11:15;;;;;;;3.80;1.35;;;18.70;33.50;;;;;;4920517;29;20183;-80
2021/04/15 10:14:12;;;;;;;1.90;1.00;;;18.70;33.30;;;;;;4907170;29;20171;-79
2021/04/15 10:17:10;;;;;;;2.38;1.00;;;18.70;33.10;;;;;;4939759;29;20242;-79
2021/04/15 10:20:03;;;;;;;1.52;1.13;;;18.70;33.30;;;;;;4941674;29;20218;-79
2021/04/15 10:22:52;;;;;;;2.78;1.00;;;18.70;33.20;;;;;;4939721;29;20692;-79
2021/04/15 10:25:32;;;;;;;1.67;1.00;;;18.70;33.20;;;;;;4923845;29;20183;-79
2021/04/15 10:28:16;;;;;;;1.92;1.08;;;18.70;33.10;;;;;;4940689;29;20678;-79
2021/04/15 10:31:01;;;;;;;3.53;0.85;;;18.80;33.00;;;;;;4940705;29;20175;-79
2021/04/15 10:33:43;;;;;;;1.20;1.10;;;18.70;33.10;;;;;;4959657;29;20166;-79
2021/04/15 10:36:25;;;;;;;1.65;1.10;;;18.70;33.30;;;;;;4961659;29;20162;-80
2021/04/15 10:38:55;;;;;;;2.25;1.08;;;18.70;33.20;;;;;;4957538;29;20240;-79
2021/04/15 10:41:58;;;;;;;1.27;1.00;;;18.70;33.30;;;;;;4954957;29;20218;-82
2021/04/15 10:45:04;;;;;;;1.30;1.15;;;18.70;33.30;;;;;;4955890;29;20162;-79
2021/04/15 10:48:22;;;;;;;2.97;1.10;;;18.70;33.30;;;;;;4960125;29;20152;-79
2021/04/15 10:51:02;;;;;;;1.70;1.17;;;18.60;33.30;;;;;;4938232;29;20250;-79
2021/04/15 10:53:47;;;;;;;1.80;1.00;;;18.70;33.20;;;;;;4920961;29;20535;-80
2021/04/15 10:56:30;;;;;;;2.42;1.10;;;18.70;33.20;;;;;;4938377;29;20167;-79
2021/04/15 10:59:02;;;;;;;1.20;0.98;;;18.60;33.20;;;;;;4939091;29;20203;-79
2021/04/15 11:01:44;;;;;;;1.05;0.98;;;18.70;33.10;;;;;;4924491;29;20230;-80
2021/04/15 11:04:13;;;;;;;2.00;1.08;;;18.60;33.00;;;;;;4907851;29;20193;-80
2021/04/15 11:06:54;;;;;;;2.30;1.15;;;18.70;33.30;;;;;;4922836;29;20163;-79
2021/04/15 11:09:32;;;;;;;2.30;1.17;;;18.60;33.40;;;;;;4922493;29;20162;-79
2021/04/15 11:12:14;;;;;;;1.45;0.98;;;18.60;33.30;;;;;;4922778;29;20217;-79
2021/04/15 11:15:11;;;;;;;1.90;1.10;;;18.60;33.30;;;;;;4939800;29;20182;-79
2021/04/15 11:17:43;;;;;;;1.63;0.90;;;18.60;33.20;;;;;;4924317;29;20226;-78
2021/04/15 11:20:24;;;;;;;1.63;1.10;;;18.60;33.30;;;;;;4924495;29;20205;-78
2021/04/15 11:23:08;;;;;;;1.92;1.20;;;18.60;33.30;;;;;;4940331;29;20625;-79
2021/04/15 11:25:54;;;;;;;1.85;1.02;;;18.60;33.30;;;;;;4923800;29;20174;-79
2021/04/15 11:28:29;;;;;;;1.85;0.93;;;18.60;33.20;;;;;;4908015;29;20199;-79
2021/04/15 11:31:09;;;;;;;1.88;1.00;;;18.60;33.30;;;;;;4905435;29;20183;-79
2021/04/15 11:33:41;;;;;;;1.25;0.88;;;18.60;33.20;;;;;;4922952;29;20171;-78
2021/04/15 11:36:16;;;;;;;2.72;1.13;;;18.60;33.00;;;;;;4906142;29;20635;-78
2021/04/15 11:39:15;;;;;;;1.98;0.88;;;18.60;33.10;;;;;;4891424;29;20151;-79
2021/04/15 11:42:00;;;;;;;1.45;1.08;;;18.60;33.30;;;;;;4909689;29;20199;-78
2021/04/15 11:44:37;;;;;;;2.00;1.10;;;18.60;33.30;;;;;;4922116;29;20188;-79
2021/04/15 11:47:24;;;;;;;1.60;0.98;;;18.60;33.30;;;;;;4922618;29;20183;-78
2021/04/15 11:50:10;;;;;;;1.15;0.68;;;18.60;33.30;;;;;;4922619;29;20179;-77
2021/04/15 11:52:45;;;;;;;0.90;0.90;;;18.60;33.30;;;;;;4922390;29;20175;-78
2021/04/15 11:55:32;;;;;;;1.30;1.00;;;18.50;33.20;;;;;;4906793;29;20179;-78
2021/04/15 11:58:05;;;;;;;1.10;1.00;;;18.50;33.30;;;;;;4918155;29;20190;-79
2021/04/15 12:00:34;;;;;;;1.33;0.90;;;18.50;33.20;;;;;;4912628;29;20211;-81
2021/04/15 12:03:00;;;;;;;1.10;1.00;;;18.60;33.20;;;;;;4911230;29;20156;-78
2021/04/15 12:05:38;;;;;;;1.50;1.00;;;18.50;33.30;;;;;;4913213;29;20227;-78
2021/04/15 12:08:27;;;;;;;1.83;1.20;;;18.60;33.30;;;;;;4908790;29;20243;-79
2021/04/15 12:11:04;;;;;;;1.13;1.02;;;18.60;33.20;;;;;;4914541;29;20223;-79
2021/04/15 12:13:57;;;;;;;4.50;1.00;;;18.60;33.30;;;;;;4897929;29;20189;-79
2021/04/15 12:16:58;;;;;;;1.75;1.13;;;18.60;33.10;;;;;;4902273;29;20162;-79
2021/04/15 12:19:46;;;;;;;0.82;0.80;;;18.60;33.00;;;;;;4954294;29;20237;-78
2021/04/15 12:22:34;;;;;;;2.47;1.00;;;18.70;33.10;;;;;;4951440;29;20188;-77
2021/04/15 12:25:02;;;;;;;1.70;1.13;;;18.60;33.10;;;;;;4951222;29;20169;-79
2021/04/15 12:27:36;;;;;;;0.88;0.88;;;18.60;33.10;;;;;;4951357;29;20163;-78
2021/04/15 12:30:49;;;;;;;1.52;0.90;;;18.60;33.10;;;;;;4934540;29;20206;-79
2021/04/15 12:33:17;;;;;;;1.67;0.98;;;18.60;33.20;;;;;;4929757;29;20206;-79
2021/04/15 12:35:57;;;;;;;2.15;0.90;;;18.50;33.30;;;;;;4914481;29;20242;-78
2021/04/15 12:38:36;;;;;;;1.00;0.90;;;18.50;33.30;;;;;;4933122;29;20174;-79
2021/04/15 12:41:05;;;;;;;0.98;0.90;;;18.60;33.30;;;;;;4920431;29;20273;-76
2021/04/15 12:44:02;;;;;;;1.50;0.90;;;18.50;33.30;;;;;;4920412;29;20203;-79
2021/04/15 12:46:39;;;;;;;0.65;0.65;;;18.60;33.20;;;;;;4937576;29;20162;-80
2021/04/15 12:49:15;;;;;;;1.75;0.93;;;18.60;33.20;;;;;;4920202;29;20170;-78
2021/04/15 12:52:00;;;;;;;1.15;0.80;;;18.60;33.20;;;;;;4919148;29;20219;-79
2021/04/15 12:54:31;;;;;;;1.63;0.80;;;18.60;33.10;;;;;;4919434;29;20178;-77
2021/04/15 12:56:59;;;;;;;1.85;1.15;;;18.60;33.10;;;;;;4918770;29;20246;-77
2021/04/15 12:59:32;;;;;;;2.33;0.93;;;18.60;33.10;;;;;;4903691;29;20170;-78
2021/04/15 13:02:26;;;;;;;1.80;0.82;;;18.70;33.20;;;;;;4920264;29;20166;-78
2021/04/15 13:05:02;;;;;;;0.80;0.80;;;18.60;33.10;;;;;;4954528;29;20196;-77
2021/04/15 13:07:35;;;;;;;2.28;0.90;;;18.60;33.30;;;;;;4956238;29;20173;-80
2021/04/15 13:10:13;;;;;;;1.00;0.90;;;18.70;33.20;;;;;;4955499;29;20166;-79
2021/04/15 13:12:45;;;;;;;1.25;1.15;;;18.60;33.30;;;;;;4955833;29;20166;-79
2021/04/15 13:15:41;;;;;;;2.17;1.05;;;18.60;33.90;;;;;;4954590;29;20170;-78
2021/04/15 13:18:08;;;;;;;3.35;1.17;;;18.70;33.20;;;;;;4917173;29;20234;-79
2021/04/15 13:21:02;;;;;;;0.95;0.85;;;18.70;33.10;;;;;;4921091;29;20222;-79
2021/04/15 13:23:51;;;;;;;1.17;1.02;;;18.70;33.20;;;;;;4938878;29;20243;-79
2021/04/15 13:26:22;;;;;;;1.90;1.00;;;18.60;33.10;;;;;;4938785;29;20159;-79
2021/04/15 13:28:48;;;;;;;2.78;0.90;;;18.70;33.10;;;;;;4922514;29;20191;-79
2021/04/15 13:31:54;;;;;;;1.63;1.00;;;18.70;33.20;;;;;;4936200;29;20162;-78
2021/04/15 13:35:01;;;;;;;2.38;1.00;;;18.60;33.00;;;;;;4935524;29;20201;-79
2021/04/15 13:37:59;;;;;;;1.48;0.85;;;18.70;33.00;;;;;;4934391;29;20163;-77
2021/04/15 13:40:32;;;;;;;1.20;0.90;;;18.60;33.10;;;;;;4930597;29;20317;-79
2021/04/15 13:43:34;;;;;;;3.80;1.20;;;18.60;33.20;;;;;;4919839;29;20261;-79
2021/04/15 13:46:25;;;;;;;10.00;1.23;;;18.60;33.30;;;;;;4934154;29;20189;-79
2021/04/15 13:48:51;;;;;;;3.13;0.85;;;18.60;33.20;;;;;;4932545;29;20194;-82
2021/04/15 13:51:45;;;;;;;6.28;0.82;;;18.60;33.10;;;;;;4932314;29;20175;-80
2021/04/15 13:54:13;;;;;;;3.58;1.35;;;18.60;33.20;;;;;;4942873;29;20236;-79
2021/04/15 13:56:57;;;;;;;3.58;1.17;;;18.60;33.30;;;;;;4952643;29;20235;-79
2021/04/15 13:59:36;;;;;;;3.03;0.93;;;18.60;33.10;;;;;;4956444;29;20162;-80
2021/04/15 14:02:13;;;;;;;7.63;1.63;;;18.60;33.20;;;;;;4954007;29;20163;-78
2021/04/15 14:04:42;;;;;;;4.55;1.10;;;18.70;33.40;;;;;;4954057;29;20166;-77